Time;durP1;ratioP1;P1;durP2;ratioP2;P2;SDS_P1;SDS_P2;PMS_P1;PMS_P2;Temp;Humidity;BMP_temperature;BMP_pressure;BME280_temperature;BME280_humidity;BME280_pressure;Samples;Min_cycle;Max_cycle;Signal;HPM_P1;HPM_P2
2023/08/21 00:01:43;;;;;;;4.93;3.00;;;;;;;;;;5046746;28;20495;-83
2023/08/21 00:04:10;;;;;;;4.87;3.20;;;;;;;;;;5039349;28;20492;-84
2023/08/21 00:06:37;;;;;;;4.00;2.93;;;;;;;;;;5051419;28;20465;-83
2023/08/21 00:09:05;;;;;;;7.70;4.03;;;;;;;;;;5046713;28;20500;-83
2023/08/21 00:11:32;;;;;;;4.37;3.43;;;;;;;;;;5034683;28;20454;-82
2023/08/21 00:13:59;;;;;;;7.60;3.30;;;;;;;;;;5049455;28;20449;-83
2023/08/21 00:16:29;;;;;;;13.30;4.10;;;;;;;;;;5054914;28;20461;-84
2023/08/21 00:18:57;;;;;;;5.37;3.87;;;;;;;;;;5052247;28;20864;-83
2023/08/21 00:21:24;;;;;;;6.90;3.50;;;;;;;;;;5062318;28;20426;-84
2023/08/21 00:23:51;;;;;;;4.00;3.20;;;;;;;;;;5049856;28;20442;-84
2023/08/21 00:26:19;;;;;;;4.60;3.07;;;;;;;;;;5036852;28;20469;-82
2023/08/21 00:28:46;;;;;;;3.83;3.03;;;;;;;;;;5014166;28;20451;-83
2023/08/21 00:31:13;;;;;;;5.53;3.77;;;;;;;;;;5014304;28;20435;-83
2023/08/21 00:33:42;;;;;;;5.07;3.20;;;;;;;;;;5036849;28;20533;-83
2023/08/21 00:36:09;;;;;;;5.10;3.33;;;;;;;;;;5039982;28;22061;-83
2023/08/21 00:38:36;;;;;;;3.77;3.30;;;;;;;;;;5053962;28;20833;-83
2023/08/21 00:41:04;;;;;;;5.70;3.37;;;;;;;;;;5038600;28;20485;-83
2023/08/21 00:43:31;;;;;;;4.83;3.10;;;;;;;;;;5053247;28;20527;-83
2023/08/21 00:45:59;;;;;;;6.87;3.80;;;;;;;;;;5037046;28;21094;-84
2023/08/21 00:48:26;;;;;;;5.50;3.00;;;;;;;;;;5033907;28;20454;-83
2023/08/21 00:50:55;;;;;;;4.80;3.80;;;;;;;;;;5036532;28;20450;-83
2023/08/21 00:53:22;;;;;;;5.60;3.57;;;;;;;;;;5054469;28;20517;-83
2023/08/21 00:55:50;;;;;;;4.60;3.20;;;;;;;;;;5038702;28;20466;-83
2023/08/21 00:58:18;;;;;;;4.83;3.30;;;;;;;;;;5033841;28;20446;-83
2023/08/21 01:00:47;;;;;;;6.30;3.50;;;;;;;;;;5046968;28;20556;-83
2023/08/21 01:03:14;;;;;;;5.47;3.43;;;;;;;;;;5053483;28;20481;-83
2023/08/21 01:05:41;;;;;;;6.30;4.27;;;;;;;;;;5039848;28;20532;-83
2023/08/21 01:08:12;;;;;;;5.33;3.50;;;;;;;;;;5044313;28;20477;-84
2023/08/21 01:10:47;;;;;;;5.00;3.27;;;;;;;;;;5045044;28;20439;-82
2023/08/21 01:13:21;;;;;;;5.67;4.10;;;;;;;;;;5043644;28;20445;-83
2023/08/21 01:15:49;;;;;;;5.00;3.30;;;;;;;;;;5042990;28;20465;-84
2023/08/21 01:18:17;;;;;;;6.50;3.50;;;;;;;;;;5051576;28;20938;-84
2023/08/21 01:20:44;;;;;;;4.90;3.30;;;;;;;;;;5051503;28;20469;-82
2023/08/21 01:23:18;;;;;;;6.03;3.80;;;;;;;;;;5052377;28;20445;-82
2023/08/21 01:25:46;;;;;;;4.53;3.37;;;;;;;;;;5039234;28;20474;-83
2023/08/21 01:28:13;;;;;;;6.23;3.67;;;;;;;;;;5052724;28;20441;-83
2023/08/21 01:30:41;;;;;;;5.00;3.30;;;;;;;;;;5052898;28;20433;-82
2023/08/21 01:33:13;;;;;;;4.57;3.10;;;;;;;;;;5041325;28;20939;-82
2023/08/21 01:35:40;;;;;;;7.20;3.93;;;;;;;;;;5032475;28;20532;-83
2023/08/21 01:38:08;;;;;;;4.10;3.03;;;;;;;;;;5034274;28;20504;-83
2023/08/21 01:40:35;;;;;;;6.57;3.60;;;;;;;;;;5041772;28;20478;-83
2023/08/21 01:43:04;;;;;;;4.40;2.90;;;;;;;;;;5042342;28;20499;-83
2023/08/21 01:45:31;;;;;;;4.27;3.03;;;;;;;;;;5043980;28;20465;-83
2023/08/21 01:47:58;;;;;;;4.97;4.00;;;;;;;;;;5036374;28;20446;-82
2023/08/21 01:50:25;;;;;;;4.83;3.00;;;;;;;;;;5033230;28;20920;-83
2023/08/21 01:52:53;;;;;;;3.23;2.77;;;;;;;;;;5036783;28;20450;-83
2023/08/21 01:55:20;;;;;;;4.60;3.37;;;;;;;;;;5043898;28;20501;-83
2023/08/21 01:57:47;;;;;;;5.70;3.30;;;;;;;;;;5045314;28;20441;-84
2023/08/21 02:00:17;;;;;;;5.60;3.87;;;;;;;;;;5049185;28;20564;-82
2023/08/21 02:02:44;;;;;;;5.70;3.47;;;;;;;;;;5035401;28;20499;-83
2023/08/21 02:05:11;;;;;;;5.67;3.80;;;;;;;;;;5044625;28;20436;-82
2023/08/21 02:07:38;;;;;;;7.97;3.83;;;;;;;;;;5015231;28;20950;-83
2023/08/21 02:10:06;;;;;;;4.60;4.00;;;;;;;;;;5031638;28;20951;-83
2023/08/21 02:12:33;;;;;;;5.03;3.50;;;;;;;;;;5032708;28;20517;-84
2023/08/21 02:15:01;;;;;;;6.80;3.10;;;;;;;;;;5038177;28;20957;-83
2023/08/21 02:17:29;;;;;;;4.27;3.80;;;;;;;;;;5042751;28;20870;-83
2023/08/21 02:19:57;;;;;;;5.33;2.93;;;;;;;;;;5037404;28;20473;-84
2023/08/21 02:22:24;;;;;;;6.27;3.10;;;;;;;;;;5033759;28;20943;-84
2023/08/21 02:24:51;;;;;;;4.70;3.63;;;;;;;;;;5034589;28;20475;-83
2023/08/21 02:27:19;;;;;;;4.23;2.80;;;;;;;;;;5045238;28;20441;-83
2023/08/21 02:29:46;;;;;;;6.20;3.20;;;;;;;;;;5035965;28;20451;-85
2023/08/21 02:32:13;;;;;;;4.80;3.27;;;;;;;;;;5044715;28;20957;-83
2023/08/21 02:34:42;;;;;;;6.07;2.83;;;;;;;;;;5050882;28;20515;-83
2023/08/21 02:37:09;;;;;;;5.77;3.20;;;;;;;;;;5049212;28;20880;-82
2023/08/21 02:39:36;;;;;;;4.90;3.60;;;;;;;;;;5032005;28;20492;-83
2023/08/21 02:42:04;;;;;;;6.00;3.80;;;;;;;;;;5037415;28;20500;-84
2023/08/21 02:44:31;;;;;;;10.37;3.50;;;;;;;;;;5021896;28;20478;-84
2023/08/21 02:46:58;;;;;;;5.03;3.20;;;;;;;;;;5031001;28;20966;-83
2023/08/21 02:49:25;;;;;;;5.77;4.00;;;;;;;;;;5047798;28;20920;-85
2023/08/21 02:51:54;;;;;;;4.03;3.10;;;;;;;;;;5017813;28;20520;-83
2023/08/21 02:54:21;;;;;;;6.27;3.90;;;;;;;;;;5043141;28;20445;-82
2023/08/21 02:56:49;;;;;;;3.90;3.40;;;;;;;;;;5063662;28;20441;-84
2023/08/21 02:59:16;;;;;;;5.17;3.63;;;;;;;;;;5069227;28;20469;-84
2023/08/21 03:01:43;;;;;;;4.77;3.03;;;;;;;;;;5068011;28;20477;-85
2023/08/21 03:04:11;;;;;;;5.20;2.77;;;;;;;;;;5066060;28;20437;-84
2023/08/21 03:06:38;;;;;;;5.10;3.70;;;;;;;;;;5066866;28;20740;-84
2023/08/21 03:09:07;;;;;;;5.63;3.17;;;;;;;;;;5068678;28;20475;-83
2023/08/21 03:11:34;;;;;;;5.73;3.90;;;;;;;;;;5068645;28;20441;-84
2023/08/21 03:14:01;;;;;;;7.90;3.73;;;;;;;;;;5059002;28;20445;-84
2023/08/21 03:16:29;;;;;;;5.60;3.80;;;;;;;;;;5053669;28;20549;-84
2023/08/21 03:18:57;;;;;;;3.80;3.30;;;;;;;;;;5052913;28;20441;-83
2023/08/21 03:21:24;;;;;;;6.43;3.20;;;;;;;;;;5054005;28;20915;-83
2023/08/21 03:23:52;;;;;;;4.90;3.70;;;;;;;;;;5054462;28;20472;-84
2023/08/21 03:26:21;;;;;;;5.37;3.77;;;;;;;;;;5052722;28;20462;-83
2023/08/21 03:28:48;;;;;;;4.13;3.50;;;;;;;;;;5051479;28;21011;-84
2023/08/21 03:31:15;;;;;;;4.87;3.07;;;;;;;;;;5051007;28;20441;-82
2023/08/21 03:33:43;;;;;;;5.03;3.20;;;;;;;;;;5050099;28;20514;-83
2023/08/21 03:36:10;;;;;;;5.27;3.20;;;;;;;;;;5049948;28;20597;-84
2023/08/21 03:38:37;;;;;;;5.60;3.73;;;;;;;;;;5036089;28;20839;-83
2023/08/21 03:41:05;;;;;;;4.93;3.73;;;;;;;;;;5032769;28;20473;-83
2023/08/21 03:43:34;;;;;;;4.47;3.17;;;;;;;;;;5037822;28;20481;-82
2023/08/21 03:46:01;;;;;;;5.30;3.50;;;;;;;;;;5035763;28;20466;-82
2023/08/21 03:48:28;;;;;;;5.90;3.47;;;;;;;;;;5039586;28;20496;-83
2023/08/21 03:50:56;;;;;;;6.30;4.17;;;;;;;;;;5044049;28;20434;-83
2023/08/21 03:53:23;;;;;;;5.07;3.20;;;;;;;;;;5046141;28;20446;-83
2023/08/21 03:55:50;;;;;;;10.33;3.60;;;;;;;;;;5050941;28;20492;-84
2023/08/21 03:58:18;;;;;;;5.63;3.43;;;;;;;;;;5052669;28;20449;-83
2023/08/21 04:00:47;;;;;;;4.93;3.00;;;;;;;;;;5049884;28;20482;-83
2023/08/21 04:03:14;;;;;;;3.63;2.93;;;;;;;;;;5041387;28;20438;-84
2023/08/21 04:05:41;;;;;;;5.27;3.40;;;;;;;;;;5046043;28;20473;-83
2023/08/21 04:08:08;;;;;;;4.83;3.87;;;;;;;;;;5055557;28;20456;-84
2023/08/21 04:10:36;;;;;;;6.13;3.83;;;;;;;;;;5056551;28;20427;-83
2023/08/21 04:13:03;;;;;;;5.10;3.43;;;;;;;;;;5059137;28;20414;-84
2023/08/21 04:15:30;;;;;;;6.13;3.63;;;;;;;;;;5058991;28;20655;-83
2023/08/21 04:17:59;;;;;;;4.60;3.10;;;;;;;;;;5058848;28;20419;-83
2023/08/21 04:20:26;;;;;;;6.03;3.30;;;;;;;;;;5058614;28;20457;-83
2023/08/21 04:22:53;;;;;;;5.07;3.57;;;;;;;;;;5058454;28;20504;-84
2023/08/21 04:25:21;;;;;;;6.53;4.27;;;;;;;;;;5052650;28;20508;-83
2023/08/21 04:27:48;;;;;;;5.27;3.30;;;;;;;;;;5058535;28;20411;-85
2023/08/21 04:30:15;;;;;;;5.60;3.40;;;;;;;;;;5058757;28;20426;-84
2023/08/21 04:32:43;;;;;;;5.60;3.40;;;;;;;;;;5055193;28;20431;-84
2023/08/21 04:35:11;;;;;;;5.87;3.30;;;;;;;;;;5055390;28;20512;-84
2023/08/21 04:37:40;;;;;;;4.57;3.17;;;;;;;;;;5054864;28;20456;-83
2023/08/21 04:40:07;;;;;;;4.03;3.20;;;;;;;;;;5058612;28;20430;-84
2023/08/21 04:42:35;;;;;;;6.93;4.20;;;;;;;;;;5058869;28;20507;-83
2023/08/21 04:45:02;;;;;;;6.60;3.83;;;;;;;;;;5059234;28;20458;-83
2023/08/21 04:47:30;;;;;;;6.13;3.60;;;;;;;;;;5059326;28;20442;-84
2023/08/21 04:49:58;;;;;;;5.67;3.43;;;;;;;;;;5058651;28;20425;-85
2023/08/21 04:52:26;;;;;;;3.43;2.93;;;;;;;;;;5058410;28;20500;-84
2023/08/21 04:54:54;;;;;;;5.00;3.47;;;;;;;;;;5057490;28;20447;-83
2023/08/21 04:57:21;;;;;;;4.40;2.93;;;;;;;;;;5058413;28;20489;-84
2023/08/21 04:59:49;;;;;;;4.10;3.20;;;;;;;;;;5058669;28;20410;-85
2023/08/21 05:02:16;;;;;;;5.30;3.50;;;;;;;;;;5068143;28;20458;-84
2023/08/21 05:04:43;;;;;;;4.50;3.47;;;;;;;;;;5067230;28;20489;-83
2023/08/21 05:07:11;;;;;;;4.07;3.17;;;;;;;;;;5069376;28;20422;-85
2023/08/21 05:09:39;;;;;;;5.17;2.90;;;;;;;;;;5068610;28;20414;-83
2023/08/21 05:12:07;;;;;;;5.60;3.23;;;;;;;;;;5067273;28;20422;-83
2023/08/21 05:14:34;;;;;;;4.83;3.40;;;;;;;;;;5067980;28;20414;-84
2023/08/21 05:17:02;;;;;;;4.23;3.03;;;;;;;;;;5066925;28;20433;-85
2023/08/21 05:19:29;;;;;;;7.67;3.20;;;;;;;;;;5069771;28;20418;-84
2023/08/21 05:24:42;;;;;;;3.70;2.97;;;;;;;;;;5002168;28;20464;-54
2023/08/21 05:27:09;;;;;;;4.83;3.73;;;;;;;;;;5011971;28;20488;-54
2023/08/21 05:29:36;;;;;;;8.60;3.83;;;;;;;;;;5011875;28;20786;-54
2023/08/21 05:32:04;;;;;;;6.07;3.20;;;;;;;;;;5012366;28;20431;-54
2023/08/21 05:34:31;;;;;;;3.87;3.17;;;;;;;;;;5012202;28;20471;-53
2023/08/21 05:36:58;;;;;;;5.70;3.97;;;;;;;;;;5011792;28;20435;-53
2023/08/21 05:39:25;;;;;;;4.77;3.40;;;;;;;;;;5011917;28;20439;-54
2023/08/21 05:41:54;;;;;;;4.10;3.33;;;;;;;;;;5011422;28;20503;-54
2023/08/21 05:44:21;;;;;;;5.73;3.43;;;;;;;;;;5011216;28;20474;-55
2023/08/21 05:46:49;;;;;;;7.63;3.40;;;;;;;;;;5010646;28;20451;-55
2023/08/21 05:49:16;;;;;;;6.00;3.50;;;;;;;;;;5010934;28;20899;-56
2023/08/21 05:51:43;;;;;;;6.37;3.60;;;;;;;;;;5010059;28;20526;-55
2023/08/21 05:54:10;;;;;;;5.10;3.80;;;;;;;;;;5010059;28;20525;-55
2023/08/21 05:56:38;;;;;;;7.40;3.90;;;;;;;;;;5009843;28;20491;-53
2023/08/21 05:59:06;;;;;;;4.37;3.30;;;;;;;;;;5010429;28;20463;-54
2023/08/21 06:01:33;;;;;;;5.97;3.90;;;;;;;;;;5010351;28;20474;-54
2023/08/21 06:04:01;;;;;;;5.47;3.93;;;;;;;;;;5010537;28;20529;-54
2023/08/21 06:06:28;;;;;;;5.10;3.80;;;;;;;;;;5011081;28;20738;-54
2023/08/21 06:08:55;;;;;;;7.27;3.47;;;;;;;;;;5011457;28;20739;-54
2023/08/21 06:11:22;;;;;;;4.80;2.73;;;;;;;;;;5010420;28;20866;-54
2023/08/21 06:13:50;;;;;;;5.57;3.93;;;;;;;;;;5010156;28;20509;-54
2023/08/21 06:16:18;;;;;;;6.23;3.20;;;;;;;;;;5010288;28;20467;-55
2023/08/21 06:18:46;;;;;;;5.40;2.57;;;;;;;;;;5009989;28;20497;-54
2023/08/21 06:21:13;;;;;;;5.50;3.47;;;;;;;;;;5010571;28;20568;-54
2023/08/21 06:23:40;;;;;;;9.57;4.27;;;;;;;;;;5010398;28;20451;-53
2023/08/21 06:26:07;;;;;;;4.90;4.13;;;;;;;;;;5010199;28;20542;-54
2023/08/21 06:28:35;;;;;;;6.93;3.67;;;;;;;;;;5010874;28;20478;-54
2023/08/21 06:31:03;;;;;;;6.30;3.10;;;;;;;;;;5010569;28;20435;-55
2023/08/21 06:33:31;;;;;;;5.03;3.50;;;;;;;;;;5010605;28;20974;-55
2023/08/21 06:35:59;;;;;;;4.00;3.03;;;;;;;;;;5010942;28;20467;-54
2023/08/21 06:38:26;;;;;;;5.47;3.30;;;;;;;;;;5010349;28;20501;-54
2023/08/21 06:40:53;;;;;;;3.50;2.80;;;;;;;;;;5009761;28;20435;-55
2023/08/21 06:43:21;;;;;;;5.80;3.30;;;;;;;;;;5009673;28;20439;-53
2023/08/21 06:45:48;;;;;;;4.73;3.23;;;;;;;;;;5009587;28;20548;-55
2023/08/21 06:48:16;;;;;;;5.80;3.20;;;;;;;;;;5009347;28;20840;-53
2023/08/21 06:50:44;;;;;;;7.13;3.20;;;;;;;;;;5009562;28;21155;-54
2023/08/21 06:53:11;;;;;;;4.53;3.00;;;;;;;;;;5009825;28;20466;-53
2023/08/21 06:55:39;;;;;;;6.63;3.53;;;;;;;;;;5010416;28;20969;-53
2023/08/21 06:58:06;;;;;;;5.93;3.20;;;;;;;;;;5010656;28;20509;-55
2023/08/21 07:00:33;;;;;;;4.50;3.03;;;;;;;;;;5010369;28;20535;-55
2023/08/21 07:03:01;;;;;;;5.00;3.20;;;;;;;;;;5010622;28;20482;-55
2023/08/21 07:05:28;;;;;;;7.43;3.70;;;;;;;;;;5009647;28;20528;-53
2023/08/21 07:07:57;;;;;;;5.40;4.63;;;;;;;;;;5010807;28;20463;-54
2023/08/21 07:10:24;;;;;;;9.77;5.17;;;;;;;;;;5010508;28;20501;-52
2023/08/21 07:12:51;;;;;;;5.57;4.53;;;;;;;;;;5010097;28;20446;-55
2023/08/21 07:15:19;;;;;;;6.40;4.73;;;;;;;;;;5010098;28;20463;-55
2023/08/21 07:17:46;;;;;;;5.70;4.33;;;;;;;;;;5010412;28;20471;-54
2023/08/21 07:20:13;;;;;;;9.20;5.20;;;;;;;;;;5010260;28;20501;-54
2023/08/21 07:22:40;;;;;;;7.50;4.80;;;;;;;;;;5009824;28;20534;-54
2023/08/21 07:25:10;;;;;;;6.93;5.70;;;;;;;;;;5010065;28;20494;-54
2023/08/21 07:27:37;;;;;;;7.90;5.67;;;;;;;;;;5009985;28;20444;-54
2023/08/21 07:30:05;;;;;;;8.97;5.40;;;;;;;;;;5010042;28;20439;-55
2023/08/21 07:32:32;;;;;;;7.00;5.43;;;;;;;;;;5009932;28;20525;-54
2023/08/21 07:34:59;;;;;;;8.17;5.87;;;;;;;;;;5009616;28;20463;-54
2023/08/21 07:37:26;;;;;;;8.40;5.10;;;;;;;;;;5010681;28;20486;-55
2023/08/21 07:39:56;;;;;;;6.10;5.20;;;;;;;;;;5013854;28;20497;-53
2023/08/21 07:42:25;;;;;;;7.70;3.90;;;;;;;;;;5013620;28;20510;-54
2023/08/21 07:44:52;;;;;;;6.37;4.70;;;;;;;;;;5013755;28;21015;-55
2023/08/21 07:47:20;;;;;;;6.40;3.60;;;;;;;;;;5013528;28;20447;-56
2023/08/21 07:49:47;;;;;;;4.90;3.73;;;;;;;;;;5013617;28;20438;-57
2023/08/21 07:52:15;;;;;;;6.07;3.53;;;;;;;;;;5013481;28;20489;-55
2023/08/21 07:54:43;;;;;;;6.07;3.63;;;;;;;;;;5013508;28;20833;-56
2023/08/21 07:57:10;;;;;;;4.90;4.00;;;;;;;;;;5013838;28;20439;-55
2023/08/21 07:59:39;;;;;;;7.00;3.90;;;;;;;;;;5013875;28;20537;-57
2023/08/21 08:02:06;;;;;;;6.90;4.50;;;;;;;;;;5013475;28;20474;-56
2023/08/21 08:04:33;;;;;;;6.83;3.80;;;;;;;;;;5011486;28;20976;-55
2023/08/21 08:07:01;;;;;;;6.63;4.57;;;;;;;;;;5013018;28;20813;-55
2023/08/21 08:09:28;;;;;;;6.70;3.97;;;;;;;;;;5011200;28;20973;-55
2023/08/21 08:11:55;;;;;;;7.43;5.50;;;;;;;;;;5010730;28;20463;-56
2023/08/21 08:14:22;;;;;;;5.63;4.03;;;;;;;;;;5007940;28;20440;-54
2023/08/21 08:16:51;;;;;;;5.50;4.20;;;;;;;;;;5009849;28;20533;-54
2023/08/21 08:19:18;;;;;;;9.20;4.30;;;;;;;;;;5009692;28;20463;-56
2023/08/21 08:21:46;;;;;;;9.27;4.43;;;;;;;;;;5011300;28;20529;-56
2023/08/21 08:24:13;;;;;;;7.17;4.37;;;;;;;;;;5012565;28;20509;-57
2023/08/21 08:26:42;;;;;;;5.30;4.30;;;;;;;;;;5012977;28;20882;-57
2023/08/21 08:29:09;;;;;;;6.80;4.70;;;;;;;;;;5012299;28;20447;-55
2023/08/21 08:31:38;;;;;;;6.90;4.07;;;;;;;;;;5013114;28;20856;-56
2023/08/21 08:34:07;;;;;;;6.33;3.60;;;;;;;;;;5013067;28;20941;-55
2023/08/21 08:36:34;;;;;;;6.97;4.17;;;;;;;;;;5055328;22;20543;-58
2023/08/21 08:39:01;;;;;;;7.17;4.83;;;;;;;;;;5050882;28;20445;-57
2023/08/21 08:41:32;;;;;;;6.03;3.80;;;;;;;;;;5046754;28;20447;-58
2023/08/21 08:43:59;;;;;;;7.97;4.20;;;;;;;;;;5033184;28;20523;-58
2023/08/21 08:46:26;;;;;;;6.50;4.00;;;;;;;;;;5045994;28;20497;-57
2023/08/21 08:48:54;;;;;;;8.17;4.57;;;;;;;;;;5052486;28;20518;-57
2023/08/21 08:51:24;;;;;;;6.77;3.70;;;;;;;;;;5052548;28;20441;-58
2023/08/21 08:53:51;;;;;;;7.10;4.73;;;;;;;;;;5052504;28;20461;-58
2023/08/21 08:56:18;;;;;;;5.07;3.77;;;;;;;;;;5052296;28;20501;-58
2023/08/21 08:58:46;;;;;;;6.03;3.70;;;;;;;;;;5052430;28;20495;-57
2023/08/21 09:01:13;;;;;;;4.40;3.37;;;;;;;;;;5052246;28;20844;-58
2023/08/21 09:03:40;;;;;;;5.43;4.10;;;;;;;;;;5051660;28;20473;-58
2023/08/21 09:06:07;;;;;;;5.03;4.17;;;;;;;;;;5051995;28;20542;-57
2023/08/21 09:08:36;;;;;;;8.83;4.10;;;;;;;;;;5052285;28;20503;-57
2023/08/21 09:11:04;;;;;;;7.10;4.63;;;;;;;;;;5052035;28;20465;-57
2023/08/21 09:13:32;;;;;;;4.60;3.50;;;;;;;;;;5041656;28;20540;-57
2023/08/21 09:16:00;;;;;;;8.07;4.30;;;;;;;;;;5050939;28;20501;-57
2023/08/21 09:18:27;;;;;;;7.23;4.50;;;;;;;;;;5051068;28;20543;-57
2023/08/21 09:20:54;;;;;;;5.07;3.80;;;;;;;;;;5050904;28;21062;-57
2023/08/21 09:23:22;;;;;;;5.50;4.20;;;;;;;;;;5050749;28;21015;-58
2023/08/21 09:25:50;;;;;;;5.07;3.77;;;;;;;;;;5050313;28;20519;-57
2023/08/21 09:28:20;;;;;;;6.17;4.27;;;;;;;;;;5050804;28;20441;-57
2023/08/21 09:30:52;;;;;;;8.97;4.87;;;;;;;;;;5051540;28;20939;-57
2023/08/21 09:33:20;;;;;;;7.33;4.23;;;;;;;;;;5050697;28;20487;-58
2023/08/21 09:35:48;;;;;;;4.30;3.90;;;;;;;;;;5050994;28;21084;-58
2023/08/21 09:38:15;;;;;;;4.57;3.40;;;;;;;;;;5051235;28;20944;-58
2023/08/21 09:40:42;;;;;;;5.40;4.10;;;;;;;;;;5050159;28;20877;-57
2023/08/21 09:43:12;;;;;;;5.13;4.13;;;;;;;;;;5050923;28;20503;-57
2023/08/21 09:45:39;;;;;;;4.30;3.90;;;;;;;;;;5051370;28;20552;-57
2023/08/21 09:48:07;;;;;;;5.83;4.10;;;;;;;;;;5050408;28;20495;-57
2023/08/21 09:50:35;;;;;;;5.03;4.50;;;;;;;;;;5049625;28;20967;-58
2023/08/21 09:53:03;;;;;;;5.10;4.40;;;;;;;;;;5050499;28;20442;-57
2023/08/21 09:55:31;;;;;;;7.80;4.70;;;;;;;;;;5051966;28;20492;-57
2023/08/21 09:57:59;;;;;;;5.90;5.27;;;;;;;;;;5049066;28;20449;-58
2023/08/21 10:00:30;;;;;;;7.07;4.03;;;;;;;;;;5050390;28;20792;-57
2023/08/21 10:03:01;;;;;;;5.97;4.03;;;;;;;;;;5050974;28;20480;-58
2023/08/21 10:05:28;;;;;;;5.63;4.37;;;;;;;;;;5050088;28;20466;-58
2023/08/21 10:07:56;;;;;;;4.87;4.47;;;;;;;;;;5051298;28;20473;-58
2023/08/21 10:10:24;;;;;;;6.13;4.97;;;;;;;;;;5050443;28;20449;-58
2023/08/21 10:12:54;;;;;;;5.60;4.57;;;;;;;;;;5047753;28;20426;-58
2023/08/21 10:15:21;;;;;;;6.93;4.80;;;;;;;;;;5049165;28;20523;-58
2023/08/21 10:17:50;;;;;;;4.83;4.33;;;;;;;;;;5050590;28;20441;-57
2023/08/21 10:20:23;;;;;;;4.40;4.00;;;;;;;;;;5049243;28;20514;-58
2023/08/21 10:22:50;;;;;;;5.37;4.30;;;;;;;;;;5048305;28;20513;-57
2023/08/21 10:25:21;;;;;;;6.40;4.60;;;;;;;;;;5049069;28;20550;-58
2023/08/21 10:27:51;;;;;;;9.07;4.90;;;;;;;;;;5048878;28;20449;-57
2023/08/21 10:30:21;;;;;;;5.97;4.50;;;;;;;;;;5048959;28;20866;-57
2023/08/21 10:32:51;;;;;;;5.20;4.57;;;;;;;;;;5050041;28;20466;-58
2023/08/21 10:35:20;;;;;;;5.77;4.20;;;;;;;;;;5049758;28;20956;-58
2023/08/21 10:38:06;;;;;;;5.73;4.80;;;;;;;;;;5049819;28;20534;-58
2023/08/21 10:40:33;;;;;;;6.20;4.97;;;;;;;;;;5047984;28;20433;-58
2023/08/21 10:43:02;;;;;;;6.30;4.80;;;;;;;;;;5050004;28;20477;-57
2023/08/21 10:45:29;;;;;;;5.67;4.77;;;;;;;;;;5049766;28;20469;-57
2023/08/21 10:47:59;;;;;;;5.73;4.10;;;;;;;;;;5047057;28;20499;-56
2023/08/21 10:50:26;;;;;;;9.23;4.83;;;;;;;;;;5044794;28;20548;-58
2023/08/21 10:52:54;;;;;;;6.40;4.90;;;;;;;;;;5044969;28;20515;-58
2023/08/21 10:55:22;;;;;;;5.17;4.03;;;;;;;;;;5048576;28;20919;-58
2023/08/21 10:57:50;;;;;;;4.80;3.80;;;;;;;;;;5048227;28;20956;-58
2023/08/21 11:00:18;;;;;;;5.23;4.10;;;;;;;;;;5049366;28;20505;-58
2023/08/21 11:02:45;;;;;;;6.77;4.67;;;;;;;;;;5050101;28;20473;-58
2023/08/21 11:05:15;;;;;;;7.50;5.40;;;;;;;;;;5042716;28;20553;-58
2023/08/21 11:07:44;;;;;;;6.63;4.37;;;;;;;;;;5049215;28;20487;-57
2023/08/21 11:10:13;;;;;;;5.10;3.90;;;;;;;;;;5048423;28;20480;-58
2023/08/21 11:12:40;;;;;;;5.50;4.10;;;;;;;;;;5048985;28;20891;-58
2023/08/21 11:15:08;;;;;;;6.03;4.57;;;;;;;;;;5052926;28;20457;-57
2023/08/21 11:17:35;;;;;;;7.20;4.90;;;;;;;;;;5053354;28;20441;-58
2023/08/21 11:20:04;;;;;;;6.33;5.10;;;;;;;;;;5049197;28;20477;-58
2023/08/21 11:22:33;;;;;;;5.57;4.03;;;;;;;;;;5053025;28;20452;-58
2023/08/21 11:25:01;;;;;;;5.63;5.13;;;;;;;;;;5053243;28;20460;-58
2023/08/21 11:27:28;;;;;;;9.27;4.30;;;;;;;;;;5053877;28;20498;-59
2023/08/21 11:29:55;;;;;;;8.23;4.60;;;;;;;;;;5054003;28;20808;-58
2023/08/21 11:32:23;;;;;;;4.93;4.23;;;;;;;;;;5053642;28;20437;-58
2023/08/21 11:34:51;;;;;;;9.87;3.90;;;;;;;;;;5049121;28;20473;-58
2023/08/21 11:37:19;;;;;;;7.13;4.50;;;;;;;;;;5053648;28;20479;-58
2023/08/21 11:39:49;;;;;;;5.83;4.73;;;;;;;;;;5053374;28;21006;-59
2023/08/21 11:42:16;;;;;;;6.87;5.00;;;;;;;;;;5053731;28;20863;-58
2023/08/21 11:44:48;;;;;;;6.00;4.00;;;;;;;;;;5053609;28;20968;-58
2023/08/21 11:47:15;;;;;;;6.13;4.20;;;;;;;;;;5053253;28;20441;-57
2023/08/21 11:49:43;;;;;;;7.23;4.87;;;;;;;;;;5052392;28;20823;-57
2023/08/21 11:52:10;;;;;;;8.93;4.90;;;;;;;;;;5053338;28;20823;-58
2023/08/21 11:54:40;;;;;;;6.37;4.83;;;;;;;;;;5053030;28;20433;-58
2023/08/21 11:57:10;;;;;;;7.07;4.53;;;;;;;;;;5040813;28;20464;-58
2023/08/21 11:59:37;;;;;;;10.00;4.87;;;;;;;;;;5034760;28;20434;-58
2023/08/21 12:02:16;;;;;;;4.63;4.10;;;;;;;;;;5052148;28;20484;-58
2023/08/21 12:04:43;;;;;;;6.23;4.50;;;;;;;;;;5052243;28;20512;-58
2023/08/21 12:07:10;;;;;;;5.57;4.03;;;;;;;;;;5045437;28;20510;-58
2023/08/21 12:09:38;;;;;;;6.67;4.80;;;;;;;;;;5053541;28;20523;-59
2023/08/21 12:12:06;;;;;;;6.33;4.50;;;;;;;;;;5052720;28;20473;-58
2023/08/21 12:14:39;;;;;;;9.43;5.17;;;;;;;;;;5047708;28;20532;-58
2023/08/21 12:17:07;;;;;;;6.17;4.67;;;;;;;;;;5049991;28;20980;-58
2023/08/21 12:19:34;;;;;;;7.37;5.13;;;;;;;;;;5051453;28;20479;-58
2023/08/21 12:22:01;;;;;;;7.10;4.70;;;;;;;;;;5052379;28;20821;-59
2023/08/21 12:24:28;;;;;;;5.00;4.50;;;;;;;;;;5048645;28;21014;-58
2023/08/21 12:26:56;;;;;;;6.77;5.17;;;;;;;;;;5051980;28;20519;-58
2023/08/21 12:29:23;;;;;;;5.57;4.60;;;;;;;;;;5049874;28;20481;-58
2023/08/21 12:31:52;;;;;;;5.00;3.93;;;;;;;;;;5047010;28;20928;-58
2023/08/21 12:34:19;;;;;;;6.07;4.63;;;;;;;;;;5047358;28;20460;-58
2023/08/21 12:36:46;;;;;;;6.93;4.77;;;;;;;;;;5048784;28;20465;-58
2023/08/21 12:39:15;;;;;;;7.70;5.10;;;;;;;;;;5052319;28;20503;-58
2023/08/21 12:41:43;;;;;;;6.27;4.87;;;;;;;;;;5049676;28;20495;-59
2023/08/21 12:44:10;;;;;;;6.03;4.67;;;;;;;;;;5050802;28;20971;-58
2023/08/21 12:46:38;;;;;;;5.50;5.00;;;;;;;;;;5050709;28;20899;-58
2023/08/21 12:49:06;;;;;;;6.47;5.00;;;;;;;;;;5049345;28;20487;-58
2023/08/21 12:51:33;;;;;;;5.43;4.93;;;;;;;;;;5051027;28;20495;-59
2023/08/21 12:54:01;;;;;;;5.90;4.37;;;;;;;;;;5051534;28;21005;-58
2023/08/21 12:56:28;;;;;;;7.83;4.70;;;;;;;;;;5052013;28;20514;-58
2023/08/21 12:58:55;;;;;;;5.30;3.87;;;;;;;;;;5052041;28;20441;-58
2023/08/21 13:01:23;;;;;;;5.20;4.70;;;;;;;;;;5051627;28;20449;-59
2023/08/21 13:03:50;;;;;;;5.60;4.80;;;;;;;;;;5051501;28;20566;-58
2023/08/21 13:06:18;;;;;;;7.23;5.27;;;;;;;;;;5051176;28;20511;-57
2023/08/21 13:08:46;;;;;;;8.27;5.50;;;;;;;;;;5051549;28;20519;-57
2023/08/21 13:11:13;;;;;;;5.80;5.20;;;;;;;;;;5048885;28;20809;-57
2023/08/21 13:13:41;;;;;;;6.40;5.10;;;;;;;;;;5051168;28;20568;-57
2023/08/21 13:16:08;;;;;;;8.97;5.37;;;;;;;;;;5051108;28;20457;-58
2023/08/21 13:18:35;;;;;;;6.10;5.50;;;;;;;;;;5049766;28;20500;-58
2023/08/21 13:21:02;;;;;;;6.80;5.60;;;;;;;;;;5045976;28;20441;-57
2023/08/21 13:23:34;;;;;;;6.63;5.13;;;;;;;;;;5046779;28;20847;-57
2023/08/21 13:26:01;;;;;;;7.00;5.63;;;;;;;;;;5051558;28;20523;-58
2023/08/21 13:28:28;;;;;;;6.80;5.53;;;;;;;;;;5051210;28;20492;-57
2023/08/21 13:30:56;;;;;;;9.27;5.40;;;;;;;;;;5050961;28;20472;-57
2023/08/21 13:33:23;;;;;;;6.97;5.27;;;;;;;;;;5049718;28;20469;-57
2023/08/21 13:35:50;;;;;;;8.27;5.13;;;;;;;;;;5049876;28;20510;-57
2023/08/21 13:38:17;;;;;;;7.17;5.80;;;;;;;;;;5051065;28;20449;-57
2023/08/21 13:40:46;;;;;;;6.70;5.47;;;;;;;;;;5050912;28;20809;-57
2023/08/21 13:43:13;;;;;;;6.53;5.70;;;;;;;;;;5051311;28;20523;-56
2023/08/21 13:45:41;;;;;;;5.53;4.90;;;;;;;;;;5050956;28;20461;-57
2023/08/21 13:48:08;;;;;;;7.30;5.60;;;;;;;;;;5050407;28;20487;-57
2023/08/21 13:50:36;;;;;;;8.17;5.83;;;;;;;;;;5050911;28;20483;-57
2023/08/21 13:53:03;;;;;;;6.40;5.57;;;;;;;;;;5050527;28;20484;-59
2023/08/21 13:55:31;;;;;;;6.50;5.70;;;;;;;;;;5047252;28;20461;-58
2023/08/21 13:57:59;;;;;;;9.57;5.00;;;;;;;;;;5050772;28;20523;-58
2023/08/21 14:00:27;;;;;;;6.43;5.83;;;;;;;;;;5050631;28;20444;-58
2023/08/21 14:02:55;;;;;;;6.10;5.20;;;;;;;;;;5050409;28;20870;-58
2023/08/21 14:05:22;;;;;;;9.17;5.17;;;;;;;;;;5050550;28;20485;-58
2023/08/21 14:07:49;;;;;;;6.73;6.00;;;;;;;;;;5047822;28;20933;-57
2023/08/21 14:10:17;;;;;;;6.43;5.80;;;;;;;;;;5048828;28;20982;-58
2023/08/21 14:12:44;;;;;;;7.90;6.13;;;;;;;;;;5050296;28;20460;-58
2023/08/21 14:15:13;;;;;;;7.83;6.30;;;;;;;;;;5047922;28;20986;-58
2023/08/21 14:17:40;;;;;;;7.47;5.83;;;;;;;;;;5050828;28;20900;-58
2023/08/21 14:20:08;;;;;;;6.13;5.63;;;;;;;;;;5049178;28;20437;-57
2023/08/21 14:22:35;;;;;;;7.07;5.63;;;;;;;;;;5050407;28;20503;-58
2023/08/21 14:25:04;;;;;;;6.23;5.63;;;;;;;;;;5050825;28;20513;-57
2023/08/21 14:27:31;;;;;;;8.60;6.50;;;;;;;;;;5051250;28;20445;-58
2023/08/21 14:29:58;;;;;;;6.77;5.70;;;;;;;;;;5050884;28;20483;-57
2023/08/21 14:32:27;;;;;;;6.33;5.77;;;;;;;;;;5050614;28;20487;-57
2023/08/21 14:34:54;;;;;;;7.80;6.27;;;;;;;;;;5050341;28;20441;-57
2023/08/21 14:37:23;;;;;;;6.43;5.93;;;;;;;;;;5065078;22;20493;-56
2023/08/21 14:39:50;;;;;;;6.63;6.00;;;;;;;;;;5050096;28;20444;-56
2023/08/21 14:42:18;;;;;;;7.27;5.00;;;;;;;;;;5050769;28;20494;-55
2023/08/21 14:44:46;;;;;;;7.60;6.13;;;;;;;;;;5047851;28;20523;-55
2023/08/21 14:47:13;;;;;;;4.43;4.03;;;;;;;;;;5049097;28;21006;-55
2023/08/21 14:49:42;;;;;;;6.50;5.07;;;;;;;;;;5050388;28;20441;-54